Tuesday, October 16, 2018, 11:40 PM GMT
Back to Local

CYGK, Kingston, Ont.

Location: , , Canada Lat: 44.217
Local Time: 11:40 PM GMT (23:40 GMT) Lon: -76.6
Time Zone: GMT Elev: 305 ft

Show me the last for .
Show Coded

Time T Td Feel RH Dir Speed Gust Alt SLP Vis Weather Sky Remarks
2018-10-16 23:00 46 37 41 70 210° 10 - 29.93 29.94 15 BKN048 BKN130 BKN180 None
2018-10-16 22:00 46 36 40 65 240° 14 - 29.95 29.96 15 BKN100 BKN250 None
2018-10-16 21:00 48 34 40 57 240° 18 26 29.95 29.96 15 FEW020 BKN110 None
2018-10-16 20:00 46 34 38 61 240° 18 26 29.97 29.98 15 SCT032 BKN120 None
2018-10-16 19:00 48 36 39 61 230° 21 31 29.99 30.00 15 BKN038 BKN110 None
2018-10-16 18:00 48 34 39 57 230° 23 32 30.01 30.02 15 BKN045 BKN200 None
2018-10-16 17:00 46 34 37 61 230° 20 30 30.03 30.04 15 FEW024 BKN040 OVC240 None
2018-10-16 16:00 46 32 38 56 250° 15 23 30.06 30.07 15 FEW024 BKN045 BKN250 None
2018-10-16 15:00 46 34 38 61 260° 17 24 30.10 30.11 15 FEW024 BKN054 None
2018-10-16 14:00 45 36 39 70 250° 12 - 30.10 30.11 15 FEW020 BKN051 None
2018-10-16 13:00 41 36 34 80 260° 12 - 30.11 30.12 15 FEW020 BKN047 None
2018-10-16 12:00 39 36 30 86 260° 10 17 30.09 30.10 15 FEW020 FEW040 SCT250 None
2018-10-16 11:00 39 36 32 86 260° 12 - 30.09 30.10 15 FEW020 None
2018-10-16 10:00 39 34 32 80 270° 12 - 30.07 30.08 15 CLR None
2018-10-16 03:00 41 34 31 75 260° 17 25 29.96 29.97 15 FEW027 None
2018-10-16 02:00 43 34 32 70 260° 22 32 29.91 29.92 15 FEW025 BKN052 None
2018-10-16 01:51 43 36 31 75 270° 23 38 29.90 29.91 15 FEW028 BKN050 Pressure rising rapidly
2018-10-16 01:23 46 37 37 70 270° 22 32 29.87 29.88 15 -SHRA BKN028 Pressure rising rapidly
2018-10-16 01:00 46 36 37 65 260° 24 35 29.85 29.86 15 SCT043 None
2018-10-16 00:00 48 39 39 70 280° 24 32 29.81 29.82 15 SCT040 None

Support USWX by starting your Amazon purchase here.